Time;durP1;ratioP1;P1;durP2;ratioP2;P2;SDS_P1;SDS_P2;PMS_P1;PMS_P2;Temp;Humidity;BMP_temperature;BMP_pressure;BME280_temperature;BME280_humidity;BME280_pressure;Samples;Min_cycle;Max_cycle;Signal;HPM_P1;HPM_P2
2022/01/01 00:02:05;;;;;;;24.42;18.42;;;;;;;17.01;68.37;102293.94;4847402;29;20033;-77
2022/01/01 00:04:31;;;;;;;24.50;19.35;;;;;;;17.03;68.28;102300.03;4864404;29;20034;-77
2022/01/01 00:06:56;;;;;;;28.75;20.02;;;;;;;17.02;68.60;102300.00;4832364;29;20577;-77
2022/01/01 00:09:22;;;;;;;26.77;19.67;;;;;;;17.02;68.52;102305.19;4832677;29;20388;-77
2022/01/01 00:11:47;;;;;;;27.45;19.70;;;;;;;17.02;68.65;102297.41;4832345;29;20052;-77
2022/01/01 00:14:13;;;;;;;23.92;18.90;;;;;;;17.01;68.43;102283.53;4831867;29;20057;-79
2022/01/01 00:16:39;;;;;;;24.85;19.20;;;;;;;17.02;67.83;102282.66;4863023;29;20037;-81
2022/01/01 00:19:04;;;;;;;24.25;18.58;;;;;;;17.01;68.08;102290.47;4846647;29;20052;-80
2022/01/01 00:21:30;;;;;;;25.02;18.30;;;;;;;17.02;67.86;102284.41;4846610;29;20128;-78
2022/01/01 00:23:55;;;;;;;25.23;19.30;;;;;;;17.02;68.13;102287.00;4831163;29;20052;-79
2022/01/01 00:26:21;;;;;;;24.52;18.50;;;;;;;17.01;68.00;102286.13;4831732;29;20133;-78
2022/01/01 00:28:46;;;;;;;25.38;18.58;;;;;;;17.03;67.02;102291.38;4862004;29;20029;-81
2022/01/01 00:31:12;;;;;;;24.20;17.92;;;;;;;17.03;67.60;102280.97;4862309;29;20045;-77
2022/01/01 00:33:38;;;;;;;28.15;18.58;;;;;;;17.05;67.68;102284.47;4846848;29;20048;-75
2022/01/01 00:36:04;;;;;;;24.77;18.27;;;;;;;17.05;67.96;102274.94;4847241;29;20048;-75
2022/01/01 00:38:29;;;;;;;24.80;17.88;;;;;;;17.02;67.88;102274.00;4831929;29;20052;-76
2022/01/01 00:40:54;;;;;;;23.58;17.25;;;;;;;16.97;68.80;102279.13;4816232;29;20441;-75
2022/01/01 00:43:20;;;;;;;23.42;18.33;;;;;;;16.94;68.18;102263.50;4846252;29;20440;-75
2022/01/01 00:45:46;;;;;;;22.45;17.10;;;;;;;16.94;68.27;102273.88;4830716;29;20041;-76
2022/01/01 00:48:12;;;;;;;24.27;17.27;;;;;;;16.92;67.68;102277.28;4847014;29;20114;-75
2022/01/01 00:50:37;;;;;;;22.48;17.33;;;;;;;16.91;68.12;102273.81;4846467;29;20132;-77
2022/01/01 00:53:03;;;;;;;23.40;17.60;;;;;;;16.90;68.58;102264.28;4862754;29;20266;-76
2022/01/01 00:55:28;;;;;;;22.13;16.80;;;;;;;16.90;68.11;102260.78;4830729;29;20053;-77
2022/01/01 00:57:54;;;;;;;25.10;17.25;;;;;;;16.89;67.95;102267.72;4845902;29;20045;-75
2022/01/01 01:00:19;;;;;;;21.08;16.67;;;;;;;16.88;67.84;102276.38;4830806;29;20042;-76
2022/01/01 01:02:44;;;;;;;21.90;17.90;;;;;;;16.88;68.26;102289.38;4846355;29;20109;-75
2022/01/01 01:05:10;;;;;;;26.98;18.67;;;;;;;16.88;68.21;102302.38;4830849;29;20045;-76
2022/01/01 01:07:35;;;;;;;21.58;17.33;;;;;;;16.88;67.99;102296.31;4830534;29;20128;-76
2022/01/01 01:10:02;;;;;;;23.95;17.80;;;;;;;16.88;68.04;102309.31;4830842;29;20065;-77
2022/01/01 01:12:37;;;;;;;22.30;17.38;;;;;;;16.88;67.53;102311.91;4862657;29;20061;-76
2022/01/01 01:15:04;;;;;;;21.90;15.80;;;;;;;16.88;67.54;102311.91;4832347;29;20056;-75
2022/01/01 01:17:29;;;;;;;21.88;16.65;;;;;;;16.88;68.14;102315.38;4831171;29;20046;-75
2022/01/01 01:19:54;;;;;;;23.50;15.90;;;;;;;16.88;67.18;102318.00;4830434;29;20042;-75
2022/01/01 01:22:20;;;;;;;21.35;15.63;;;;;;;16.87;67.93;102305.81;4829773;29;20049;-75
2022/01/01 01:24:45;;;;;;;19.83;15.63;;;;;;;16.86;67.08;102310.16;4829888;29;20045;-75
2022/01/01 01:27:10;;;;;;;18.33;15.73;;;;;;;16.87;67.70;102308.41;4861617;29;20121;-75
2022/01/01 01:29:41;;;;;;;22.52;16.38;;;;;;;16.88;67.77;102317.13;4814449;29;20041;-75
2022/01/01 01:32:07;;;;;;;21.50;15.65;;;;;;;16.88;68.14;102312.78;4830669;29;20037;-77
2022/01/01 01:34:33;;;;;;;19.55;15.52;;;;;;;16.87;67.21;102313.63;4845174;29;20037;-75
2022/01/01 01:36:58;;;;;;;21.25;15.77;;;;;;;16.87;67.46;102324.03;4814675;29;20076;-75
2022/01/01 01:39:24;;;;;;;20.52;15.40;;;;;;;16.87;67.42;102300.63;4814376;29;20064;-75
2022/01/01 01:41:51;;;;;;;19.70;15.15;;;;;;;16.88;67.88;102305.00;4829824;29;20189;-75
2022/01/01 01:44:33;;;;;;;20.10;15.20;;;;;;;16.88;67.50;102306.72;4815334;29;20455;-76
2022/01/01 01:47:02;;;;;;;22.95;15.68;;;;;;;16.88;67.50;102307.59;4861582;29;20098;-75
2022/01/01 01:49:28;;;;;;;20.40;14.90;;;;;;;16.87;68.12;102303.22;4845534;29;20042;-74
2022/01/01 01:51:54;;;;;;;19.65;14.90;;;;;;;16.88;67.33;102306.72;4860041;29;20037;-75
2022/01/01 01:54:20;;;;;;;19.20;14.75;;;;;;;16.88;67.52;102311.91;4861435;29;20519;-74
2022/01/01 01:56:46;;;;;;;18.40;14.68;;;;;;;16.88;67.67;102319.72;4829568;29;20064;-75
2022/01/01 01:59:14;;;;;;;18.05;13.68;;;;;;;16.87;67.24;102313.63;4862209;29;20089;-75
2022/01/01 02:01:40;;;;;;;16.10;13.35;;;;;;;16.87;66.81;102324.03;4862139;29;20061;-75
2022/01/01 02:04:05;;;;;;;16.52;13.27;;;;;;;16.86;67.16;102317.97;4829958;29;20485;-75
2022/01/01 02:06:32;;;;;;;18.33;13.52;;;;;;;16.88;67.42;102322.31;4814759;29;21078;-75
2022/01/01 02:08:58;;;;;;;18.80;14.13;;;;;;;16.87;67.62;102321.41;4845333;29;20037;-75
2022/01/01 02:11:24;;;;;;;18.48;13.63;;;;;;;16.88;67.34;102317.13;4814699;29;20511;-76
2022/01/01 02:18:46;;;;;;;17.23;12.95;;;;;;;16.88;67.33;102314.53;4845663;29;20072;-75
2022/01/01 02:21:13;;;;;;;17.35;13.63;;;;;;;16.87;67.18;102316.22;4817836;29;20064;-74
2022/01/01 02:23:42;;;;;;;18.30;13.27;;;;;;;16.88;67.94;102311.91;4848279;29;20515;-75
2022/01/01 02:26:15;;;;;;;16.98;13.00;;;;;;;16.87;67.05;102311.03;4819187;29;20449;-74
2022/01/01 02:28:46;;;;;;;18.33;13.10;;;;;;;16.87;67.26;102303.22;4865163;29;20029;-75
2022/01/01 02:31:13;;;;;;;18.02;12.63;;;;;;;16.87;67.53;102298.03;4834034;29;20064;-76
2022/01/01 02:33:39;;;;;;;15.68;12.18;;;;;;;16.87;66.88;102305.81;4848626;29;20488;-74
2022/01/01 02:36:05;;;;;;;16.80;12.48;;;;;;;16.86;66.96;102304.94;4847956;29;20136;-75
2022/01/01 02:38:35;;;;;;;15.90;12.27;;;;;;;16.87;67.04;102305.81;4848169;29;20480;-75
2022/01/01 02:41:00;;;;;;;16.77;12.32;;;;;;;16.87;66.86;102324.03;4833071;29;20140;-76
2022/01/01 02:43:26;;;;;;;17.08;12.18;;;;;;;16.87;66.99;102321.41;4863375;29;20388;-76
2022/01/01 02:45:52;;;;;;;15.48;11.30;;;;;;;16.86;66.64;102320.56;4817229;29;20037;-75
2022/01/01 02:48:17;;;;;;;14.30;11.27;;;;;;;16.86;66.64;102330.94;4832500;29;20042;-76
2022/01/01 02:50:43;;;;;;;15.73;11.40;;;;;;;16.87;66.70;102331.81;4863088;29;20113;-76
2022/01/01 02:53:13;;;;;;;15.65;10.60;;;;;;;16.86;66.92;102323.16;4863118;29;20045;-75
2022/01/01 02:55:39;;;;;;;14.45;11.43;;;;;;;16.86;66.52;102320.56;4864374;29;20053;-76
2022/01/01 02:58:04;;;;;;;15.07;12.07;;;;;;;16.86;67.10;102323.16;4832005;29;20038;-76
2022/01/01 03:00:30;;;;;;;14.23;11.30;;;;;;;16.86;67.03;102319.69;4831672;29;20041;-75
2022/01/01 03:02:55;;;;;;;13.45;10.90;;;;;;;16.85;66.87;102311.03;4832117;29;20073;-75
2022/01/01 03:05:20;;;;;;;13.68;10.90;;;;;;;16.87;66.82;102305.81;4864188;29;20045;-75
2022/01/01 03:07:46;;;;;;;13.60;11.07;;;;;;;16.86;66.63;102296.28;4817356;29;20064;-76
2022/01/01 03:10:11;;;;;;;15.32;10.68;;;;;;;16.85;66.89;102298.03;4847323;29;20393;-76
2022/01/01 03:12:36;;;;;;;13.45;10.55;;;;;;;16.85;67.13;102298.03;4832177;29;20040;-75
2022/01/01 03:15:03;;;;;;;14.10;9.75;;;;;;;16.85;66.39;102282.41;4832259;29;20052;-75
2022/01/01 03:17:28;;;;;;;13.95;11.00;;;;;;;16.86;66.59;102293.69;4847581;29;20471;-75
2022/01/01 03:19:53;;;;;;;12.80;11.00;;;;;;;16.87;66.64;102298.03;4831663;29;20098;-75
2022/01/01 03:22:19;;;;;;;13.90;10.52;;;;;;;16.86;66.40;102296.28;4863707;29;20045;-74
2022/01/01 03:24:44;;;;;;;14.43;9.65;;;;;;;16.86;66.65;102298.88;4862329;29;20049;-76
2022/01/01 03:27:09;;;;;;;13.23;10.45;;;;;;;16.86;66.41;102298.88;4847090;29;20056;-76
2022/01/01 03:29:35;;;;;;;13.18;10.18;;;;;;;16.85;66.55;102292.81;4862352;29;20400;-76
2022/01/01 03:32:00;;;;;;;13.90;10.02;;;;;;;16.86;66.42;102291.09;4831671;29;20071;-75
2022/01/01 03:34:26;;;;;;;12.60;8.93;;;;;;;16.86;66.89;102298.88;4862314;29;20045;-75
2022/01/01 03:36:52;;;;;;;14.55;10.05;;;;;;;16.86;66.96;102289.34;4847105;29;20112;-75
2022/01/01 03:39:18;;;;;;;12.25;9.95;;;;;;;16.86;66.57;102296.28;4863540;29;20493;-74
2022/01/01 03:41:43;;;;;;;13.63;9.30;;;;;;;16.85;66.46;102295.41;4846601;29;20437;-75
2022/01/01 03:44:09;;;;;;;10.43;9.20;;;;;;;16.86;66.58;102293.69;4816249;29;20113;-76
2022/01/01 03:46:34;;;;;;;13.18;9.40;;;;;;;16.85;66.35;102292.81;4846443;29;20038;-75
2022/01/01 03:48:59;;;;;;;13.05;9.40;;;;;;;16.86;66.26;102298.88;4846391;29;20520;-74
2022/01/01 03:51:25;;;;;;;10.98;9.13;;;;;;;16.87;66.50;102305.81;4816128;29;20044;-75
2022/01/01 03:53:50;;;;;;;11.43;9.25;;;;;;;16.88;66.36;102301.53;4816102;29;20042;-75
2022/01/01 03:56:16;;;;;;;12.85;8.82;;;;;;;16.86;66.30;102299.75;4815885;29;20516;-76
2022/01/01 03:58:41;;;;;;;11.70;8.75;;;;;;;16.87;66.33;102300.63;4831441;29;20121;-76
2022/01/01 04:01:07;;;;;;;12.00;9.02;;;;;;;16.85;66.62;102300.63;4846534;29;20042;-76
2022/01/01 04:03:32;;;;;;;12.18;9.38;;;;;;;16.87;66.49;102300.63;4815859;29;20072;-75
2022/01/01 04:05:58;;;;;;;13.20;8.88;;;;;;;16.85;66.37;102300.63;4831121;29;20045;-76
2022/01/01 04:08:23;;;;;;;12.35;9.05;;;;;;;16.87;66.34;102308.41;4861717;29;20045;-75
2022/01/01 04:10:48;;;;;;;11.00;8.93;;;;;;;16.87;66.38;102308.41;4815707;29;20037;-76
2022/01/01 04:13:14;;;;;;;12.07;9.18;;;;;;;16.87;66.70;102308.41;4830753;29;20110;-76
2022/01/01 04:15:41;;;;;;;12.60;9.35;;;;;;;16.87;66.47;102303.22;4816004;29;20044;-76
2022/01/01 04:18:12;;;;;;;11.82;8.85;;;;;;;16.87;66.22;102300.63;4831148;29;20042;-77
2022/01/01 04:20:44;;;;;;;11.10;8.13;;;;;;;16.88;66.35;102307.59;4862730;29;20029;-77
2022/01/01 04:23:10;;;;;;;12.05;8.65;;;;;;;16.89;66.83;102308.47;4831820;29;20396;-76
2022/01/01 04:25:37;;;;;;;11.25;8.35;;;;;;;16.89;67.10;102303.25;4846033;29;20048;-75
2022/01/01 04:28:03;;;;;;;10.32;8.00;;;;;;;16.89;66.65;102301.53;4846001;29;20523;-76
2022/01/01 04:30:29;;;;;;;10.80;8.30;;;;;;;16.89;66.71;102313.66;4845960;29;20038;-75
2022/01/01 04:32:55;;;;;;;13.70;8.57;;;;;;;16.88;67.03;102305.00;4831280;29;20037;-76
2022/01/01 04:35:21;;;;;;;10.10;8.57;;;;;;;16.88;66.69;102315.38;4846209;29;20038;-76
2022/01/01 04:37:46;;;;;;;10.77;8.25;;;;;;;16.88;66.96;102307.59;4845458;29;20056;-76
2022/01/01 04:40:12;;;;;;;9.50;8.13;;;;;;;16.89;66.47;102321.47;4861016;29;20052;-76
2022/01/01 04:42:38;;;;;;;10.98;7.95;;;;;;;16.88;66.39;102315.38;4861890;29;20614;-75
2022/01/01 04:45:03;;;;;;;10.93;8.32;;;;;;;16.89;66.88;102316.25;4845909;29;20086;-76
2022/01/01 04:47:29;;;;;;;12.65;8.65;;;;;;;16.89;66.37;102313.66;4845821;29;20053;-76
2022/01/01 04:49:54;;;;;;;11.48;7.88;;;;;;;16.90;66.62;102315.38;4830939;29;20511;-80
2022/01/01 04:52:20;;;;;;;9.95;7.90;;;;;;;16.90;66.75;102305.00;4846364;29;20042;-77
2022/01/01 04:54:45;;;;;;;10.32;7.82;;;;;;;16.90;66.51;102302.38;4861117;29;20572;-79
2022/01/01 04:57:12;;;;;;;11.55;7.75;;;;;;;16.89;66.34;102306.72;4862356;29;20048;-78
2022/01/01 04:59:39;;;;;;;10.75;7.97;;;;;;;16.89;67.24;102282.44;4862090;29;20041;-77
2022/01/01 05:02:05;;;;;;;9.35;7.70;;;;;;;16.90;66.95;102292.00;4845394;29;20092;-78
2022/01/01 05:04:30;;;;;;;10.63;7.40;;;;;;;16.90;66.43;102298.09;4830393;29;20489;-80
2022/01/01 05:06:56;;;;;;;10.48;7.50;;;;;;;16.90;66.17;102289.38;4845740;29;20051;-77
2022/01/01 05:09:22;;;;;;;10.73;7.45;;;;;;;16.89;66.21;102298.06;4845660;29;20033;-78
2022/01/01 05:11:48;;;;;;;10.25;7.60;;;;;;;16.90;66.36;102297.19;4845953;29;20396;-78
2022/01/01 05:14:14;;;;;;;8.02;7.07;;;;;;;16.90;66.16;102295.50;4815538;29;20128;-77
2022/01/01 05:16:40;;;;;;;9.10;7.30;;;;;;;16.89;65.95;102291.13;4846372;29;20456;-78
2022/01/01 05:19:06;;;;;;;8.43;7.00;;;;;;;16.88;66.17;102299.78;4862876;29;20488;-77
2022/01/01 05:21:34;;;;;;;10.07;7.10;;;;;;;16.89;66.06;102305.84;4862516;29;20038;-77
2022/01/01 05:24:01;;;;;;;10.05;7.25;;;;;;;16.89;66.36;102283.31;4831448;29;20038;-76
2022/01/01 05:26:26;;;;;;;8.73;6.95;;;;;;;16.88;66.06;102291.13;4861452;29;20064;-77
2022/01/01 05:28:51;;;;;;;9.82;7.10;;;;;;;16.88;66.02;102281.59;4830831;29;20033;-77
2022/01/01 05:31:19;;;;;;;9.60;6.65;;;;;;;16.88;66.30;102289.38;4815519;29;20095;-76
2022/01/01 05:33:46;;;;;;;9.63;7.18;;;;;;;16.88;65.99;102297.19;4861036;29;20455;-76
2022/01/01 05:36:11;;;;;;;8.82;6.90;;;;;;;16.86;65.98;102281.56;4862368;29;20037;-76
2022/01/01 05:38:36;;;;;;;8.23;6.38;;;;;;;16.88;65.69;102281.59;4831026;29;20132;-77
2022/01/01 05:41:02;;;;;;;9.38;6.88;;;;;;;16.88;65.63;102276.38;4830439;29;20049;-78
2022/01/01 05:43:27;;;;;;;9.15;6.93;;;;;;;16.88;65.95;102266.00;4846302;29;20052;-80
2022/01/01 05:45:53;;;;;;;8.57;6.60;;;;;;;16.88;65.79;102263.38;4861423;29;20049;-75
2022/01/01 05:48:18;;;;;;;8.27;6.82;;;;;;;16.88;65.84;102252.13;4830718;29;20034;-76
2022/01/01 05:50:44;;;;;;;7.70;6.32;;;;;;;16.88;65.63;102266.00;4815289;29;20132;-77
2022/01/01 05:53:09;;;;;;;8.00;6.22;;;;;;;16.88;65.64;102270.31;4815519;29;20033;-76
2022/01/01 05:55:35;;;;;;;7.82;6.05;;;;;;;16.88;65.78;102276.38;4817281;29;20062;-76
2022/01/01 05:58:01;;;;;;;10.48;7.20;;;;;;;16.88;65.66;102272.91;4849129;29;20041;-76
2022/01/01 06:00:26;;;;;;;9.02;6.47;;;;;;;16.88;65.73;102268.59;4849316;29;20385;-77
2022/01/01 06:02:51;;;;;;;9.70;6.88;;;;;;;16.88;65.58;102271.19;4819273;29;20049;-77
2022/01/01 06:05:18;;;;;;;9.10;6.57;;;;;;;16.88;65.67;102275.53;4818563;29;20187;-78
2022/01/01 06:07:43;;;;;;;7.15;5.88;;;;;;;16.86;65.71;102273.75;4833651;29;20045;-77
2022/01/01 06:10:09;;;;;;;9.93;6.72;;;;;;;16.87;65.92;102274.63;4866047;29;20037;-77
2022/01/01 06:12:38;;;;;;;8.00;6.20;;;;;;;16.88;65.82;102281.59;4834008;29;20072;-77
2022/01/01 06:15:04;;;;;;;9.65;6.05;;;;;;;16.88;65.66;102289.38;4849098;29;20053;-77
2022/01/01 06:17:29;;;;;;;9.77;6.50;;;;;;;16.88;65.58;102285.91;4848817;29;20405;-79
2022/01/01 06:19:54;;;;;;;7.47;6.25;;;;;;;16.88;65.51;102283.31;4833983;29;20045;-81
2022/01/01 06:22:20;;;;;;;9.18;6.40;;;;;;;16.87;65.40;102285.03;4833801;29;20402;-77
2022/01/01 06:24:45;;;;;;;10.00;6.20;;;;;;;16.87;65.70;102285.03;4849311;29;20037;-77
2022/01/01 06:27:12;;;;;;;8.20;6.10;;;;;;;16.88;65.53;102285.91;4864384;29;20132;-77
2022/01/01 06:29:37;;;;;;;9.02;6.22;;;;;;;16.88;65.51;102285.91;4833473;29;20537;-77
2022/01/01 06:32:03;;;;;;;7.40;5.97;;;;;;;16.88;65.66;102288.53;4832862;29;20052;-78
2022/01/01 06:34:28;;;;;;;8.70;6.47;;;;;;;16.88;65.67;102291.13;4832615;29;20343;-76
2022/01/01 06:36:54;;;;;;;9.25;6.00;;;;;;;16.88;65.51;102293.72;4848378;29;20117;-76
2022/01/01 06:39:19;;;;;;;8.70;6.43;;;;;;;16.88;65.79;102301.53;4818023;29;20378;-77
2022/01/01 06:41:44;;;;;;;8.15;5.85;;;;;;;16.88;65.59;102302.38;4818016;29;20405;-76
2022/01/01 06:44:10;;;;;;;8.25;6.07;;;;;;;16.88;65.75;102298.91;4832937;29;20100;-77
2022/01/01 06:46:35;;;;;;;7.32;5.55;;;;;;;16.88;65.56;102298.91;4817948;29;20057;-77
2022/01/01 06:49:00;;;;;;;7.63;5.75;;;;;;;16.89;65.42;102290.25;4833080;29;20042;-79
2022/01/01 06:51:26;;;;;;;9.18;6.20;;;;;;;16.86;65.35;102275.47;4832484;29;20576;-77
2022/01/01 06:53:51;;;;;;;7.63;5.57;;;;;;;16.87;65.46;102277.22;4832390;29;20103;-77
2022/01/01 06:56:17;;;;;;;8.32;6.20;;;;;;;16.88;65.53;102284.19;4817296;29;20053;-77
2022/01/01 06:58:42;;;;;;;9.25;5.70;;;;;;;16.88;65.32;102270.31;4832563;29;20046;-79
2022/01/01 07:01:07;;;;;;;7.03;5.55;;;;;;;16.88;65.29;102262.53;4832766;29;20052;-77
2022/01/01 07:03:33;;;;;;;7.47;6.10;;;;;;;16.87;65.51;102269.41;4832138;29;20400;-76
2022/01/01 07:05:59;;;;;;;7.32;5.78;;;;;;;16.88;65.55;102294.59;4862300;29;20038;-79
2022/01/01 07:08:25;;;;;;;7.55;5.22;;;;;;;16.89;65.75;102298.06;4832315;29;20043;-78
2022/01/01 07:10:50;;;;;;;8.18;5.40;;;;;;;16.90;65.51;102300.69;4862620;29;20124;-78
2022/01/01 07:13:16;;;;;;;9.40;5.88;;;;;;;16.90;65.60;102292.88;4832063;29;20110;-78
2022/01/01 07:15:42;;;;;;;6.82;5.55;;;;;;;16.91;65.63;102297.22;4863617;29;20047;-77
2022/01/01 07:18:08;;;;;;;7.47;5.40;;;;;;;16.91;65.10;102297.22;4847111;29;20038;-76
2022/01/01 07:20:33;;;;;;;7.75;6.13;;;;;;;16.91;65.49;102299.81;4846901;29;20384;-77
2022/01/01 07:22:59;;;;;;;9.32;5.63;;;;;;;16.92;65.16;102301.59;4847317;29;20080;-78
2022/01/01 07:25:24;;;;;;;6.80;5.20;;;;;;;16.92;65.11;102300.69;4847009;29;20113;-77
2022/01/01 07:27:50;;;;;;;6.30;5.28;;;;;;;16.91;65.06;102307.63;4831695;29;20455;-76
2022/01/01 07:30:15;;;;;;;7.35;5.60;;;;;;;16.91;65.07;102309.34;4831569;29;20485;-76
2022/01/01 07:32:45;;;;;;;6.93;5.20;;;;;;;16.92;64.81;102308.50;4863266;29;20037;-78
2022/01/01 07:35:12;;;;;;;6.93;5.18;;;;;;;16.91;65.04;102311.97;4831868;29;20041;-76
2022/01/01 07:37:39;;;;;;;7.20;5.35;;;;;;;16.91;65.19;102311.97;4832023;29;20052;-77
2022/01/01 07:40:08;;;;;;;8.77;5.47;;;;;;;16.90;65.17;102313.69;4862706;29;20045;-77
2022/01/01 07:42:34;;;;;;;7.25;5.50;;;;;;;16.90;65.00;102313.69;4831912;29;20515;-78
2022/01/01 07:45:00;;;;;;;7.10;5.10;;;;;;;16.91;65.08;102310.22;4831464;29;20124;-81
2022/01/01 07:47:26;;;;;;;7.55;5.47;;;;;;;16.90;64.87;102308.50;4846871;29;20037;-81
2022/01/01 07:49:51;;;;;;;8.15;4.97;;;;;;;16.91;64.74;102306.75;4847433;29;20033;-81
2022/01/01 07:52:17;;;;;;;6.95;5.45;;;;;;;16.91;64.91;102306.75;4847212;29;20048;-79
2022/01/01 07:54:43;;;;;;;6.00;4.80;;;;;;;16.91;65.08;102310.22;4831835;29;20037;-81
2022/01/01 07:57:08;;;;;;;8.70;4.80;;;;;;;16.92;65.27;102313.69;4846863;29;20029;-81
2022/01/01 07:59:34;;;;;;;6.60;4.82;;;;;;;16.94;65.20;102306.78;4831636;29;20173;-79
2022/01/01 08:01:59;;;;;;;7.13;4.97;;;;;;;16.95;65.07;102311.16;4832229;29;20389;-83
2022/01/01 08:04:24;;;;;;;8.82;5.07;;;;;;;16.96;64.96;102319.00;4831539;29;20048;-84
2022/01/01 08:06:50;;;;;;;5.95;4.55;;;;;;;16.98;65.18;102314.66;4847044;29;20041;-83
2022/01/01 08:09:16;;;;;;;9.00;4.80;;;;;;;17.00;65.05;102312.97;4816382;29;20400;-84
2022/01/01 08:11:42;;;;;;;6.07;4.75;;;;;;;17.00;65.11;102307.78;4816745;29;20041;-84
2022/01/01 08:14:08;;;;;;;7.03;4.68;;;;;;;17.01;64.76;102319.94;4846431;29;20044;-82
2022/01/01 08:16:34;;;;;;;5.40;4.32;;;;;;;17.03;64.74;102314.78;4845819;29;20030;-86
2022/01/01 08:18:59;;;;;;;6.45;4.80;;;;;;;17.04;64.20;102321.72;4861125;29;20045;-80
2022/01/01 08:21:24;;;;;;;6.55;4.82;;;;;;;17.05;64.62;102323.47;4831165;29;20071;-77
2022/01/01 08:23:50;;;;;;;6.22;4.50;;;;;;;17.08;64.62;102312.25;4863077;29;20469;-76
2022/01/01 08:26:15;;;;;;;5.50;4.40;;;;;;;17.09;64.33;102314.84;4815880;29;20037;-78
2022/01/01 08:28:41;;;;;;;7.97;4.63;;;;;;;17.09;64.26;102309.66;4815572;29;20139;-77
2022/01/01 08:31:07;;;;;;;7.13;5.05;;;;;;;17.11;65.54;102309.69;4846298;29;20041;-78
2022/01/01 08:33:32;;;;;;;11.20;6.53;;;;;;;17.22;63.68;102301.22;4831064;29;20064;-78
2022/01/01 08:35:58;;;;;;;8.60;5.75;;;;;;;17.30;64.01;102290.03;4815741;29;20485;-77
2022/01/01 08:38:23;;;;;;;9.77;5.70;;;;;;;17.34;63.69;102286.63;4846391;29;20113;-76
2022/01/01 08:40:49;;;;;;;9.98;5.68;;;;;;;17.36;64.14;102279.72;4831333;29;20049;-78
2022/01/01 08:43:14;;;;;;;6.65;4.90;;;;;;;17.38;64.20;102286.69;4846043;29;20037;-81
2022/01/01 08:45:40;;;;;;;8.07;5.53;;;;;;;17.41;64.12;102284.13;4846404;29;20042;-79
2022/01/01 08:48:06;;;;;;;7.70;5.28;;;;;;;17.42;63.62;102290.19;4846285;29;20041;-78
2022/01/01 08:50:32;;;;;;;7.97;5.10;;;;;;;17.43;63.83;102276.34;4845926;29;20033;-78
2022/01/01 08:52:57;;;;;;;8.40;4.78;;;;;;;17.43;63.53;102268.53;4845917;29;20568;-78
2022/01/01 08:55:24;;;;;;;9.13;5.00;;;;;;;17.45;63.42;102259.03;4845401;29;20060;-77
2022/01/01 08:57:49;;;;;;;6.78;4.78;;;;;;;17.48;63.37;102265.16;4862230;29;20374;-77
2022/01/01 09:00:15;;;;;;;7.57;5.13;;;;;;;17.48;63.70;102262.56;4845448;29;20044;-78
2022/01/01 09:02:41;;;;;;;7.25;4.90;;;;;;;17.51;63.47;102259.13;4815666;29;20042;-77
2022/01/01 09:05:07;;;;;;;7.30;4.60;;;;;;;17.51;63.30;102258.22;4861272;29;20041;-77
2022/01/01 09:07:33;;;;;;;6.70;4.78;;;;;;;17.52;63.55;102262.59;4830251;29;20045;-78
2022/01/01 09:10:00;;;;;;;5.93;4.85;;;;;;;17.54;63.43;102260.88;4830450;29;20037;-76
2022/01/01 09:12:26;;;;;;;5.32;4.30;;;;;;;17.54;63.15;102238.31;4815098;29;20049;-77
2022/01/01 09:14:52;;;;;;;6.10;4.57;;;;;;;17.56;62.94;102243.56;4830330;29;20129;-77
2022/01/01 09:17:18;;;;;;;7.55;4.43;;;;;;;17.57;63.01;102247.88;4830564;29;20113;-76
2022/01/01 09:19:43;;;;;;;8.65;4.70;;;;;;;17.56;63.08;102241.81;4860904;29;20057;-77
2022/01/01 09:22:09;;;;;;;10.23;4.35;;;;;;;17.56;63.00;102236.59;4845706;29;20147;-76
2022/01/01 09:24:35;;;;;;;6.30;4.22;;;;;;;17.56;63.41;102235.75;4860999;29;20049;-77
2022/01/01 09:27:01;;;;;;;5.60;4.35;;;;;;;17.57;63.09;102232.28;4815611;29;20078;-77
2022/01/01 09:29:26;;;;;;;5.60;4.28;;;;;;;17.58;62.91;102223.63;4829976;29;20076;-76
2022/01/01 09:31:51;;;;;;;5.28;4.00;;;;;;;17.58;63.13;102224.50;4845160;29;20136;-76
2022/01/01 09:34:17;;;;;;;6.30;4.18;;;;;;;17.60;63.20;102232.31;4815159;29;20484;-77
2022/01/01 09:36:42;;;;;;;6.22;4.13;;;;;;;17.65;62.76;102233.25;4845363;29;20128;-78
2022/01/01 09:39:08;;;;;;;6.63;4.35;;;;;;;17.66;62.58;102227.19;4845093;29;20045;-77
2022/01/01 09:41:34;;;;;;;6.70;4.35;;;;;;;17.66;62.69;102220.25;4845116;29;20497;-76
2022/01/01 09:44:00;;;;;;;7.63;3.85;;;;;;;17.68;62.66;102236.78;4845236;29;20037;-77
2022/01/01 09:46:26;;;;;;;4.93;3.95;;;;;;;17.68;62.85;102235.88;4845341;29;20105;-78
2022/01/01 09:48:52;;;;;;;7.40;4.10;;;;;;;17.70;62.58;102241.97;4845061;29;20037;-75
2022/01/01 09:51:19;;;;;;;6.60;4.00;;;;;;;17.72;62.69;102242.88;4815254;29;20037;-76
2022/01/01 09:53:45;;;;;;;9.98;4.00;;;;;;;17.78;62.21;102239.47;4815005;29;20378;-82
2022/01/01 09:56:11;;;;;;;4.75;3.47;;;;;;;17.78;62.32;102227.34;4844658;29;20068;-84
2022/01/01 09:58:38;;;;;;;5.40;4.07;;;;;;;17.79;62.55;102221.28;4845077;29;20076;-79
2022/01/01 10:01:06;;;;;;;8.40;4.03;;;;;;;17.83;62.26;102224.81;4845211;29;20037;-76
2022/01/01 10:03:45;;;;;;;6.63;3.85;;;;;;;17.82;62.65;102230.88;4845125;29;20041;-84
2022/01/01 10:06:12;;;;;;;5.88;4.00;;;;;;;17.86;62.07;102235.28;4845698;29;20048;-86
2022/01/01 10:08:39;;;;;;;12.52;6.13;;;;;;;17.84;62.47;102242.19;4845356;29;20072;-76
2022/01/01 10:11:06;;;;;;;17.80;8.43;;;;;;;17.82;62.43;102241.31;4815770;29;20078;-83
2022/01/01 10:13:37;;;;;;;16.35;6.72;;;;;;;17.83;62.25;102251.75;4845352;29;20041;-76
2022/01/01 10:16:05;;;;;;;19.33;6.63;;;;;;;17.84;62.66;102240.47;4861459;29;20477;-80
2022/01/01 10:18:34;;;;;;;12.23;5.90;;;;;;;17.86;61.98;102250.91;4845299;29;20132;-77
2022/01/01 10:21:08;;;;;;;11.60;5.75;;;;;;;17.93;61.75;102257.91;4861706;29;20072;-80
2022/01/01 10:23:35;;;;;;;8.52;4.70;;;;;;;17.97;61.49;102269.25;4830160;29;20041;-79
2022/01/01 10:29:20;;;;;;;7.65;4.65;;;;;;;18.00;61.43;102258.88;4823402;29;20087;-78
2022/01/01 10:32:11;;;;;;;8.80;4.97;;;;;;;18.01;61.63;102252.81;4842296;29;20041;-78
2022/01/01 10:34:43;;;;;;;9.32;4.75;;;;;;;18.03;61.02;102257.19;4829699;29;20049;-80
2022/01/01 10:37:08;;;;;;;7.28;4.57;;;;;;;18.01;61.45;102258.03;4831337;29;20045;-80
2022/01/01 10:39:47;;;;;;;8.80;4.60;;;;;;;18.02;61.35;102250.22;4830725;29;20051;-84
2022/01/01 10:42:13;;;;;;;8.18;4.60;;;;;;;18.06;61.37;102253.72;4848590;29;20070;-84
2022/01/01 10:44:38;;;;;;;6.35;4.35;;;;;;;18.05;61.86;102244.16;4833452;29;20042;-83
2022/01/01 10:47:07;;;;;;;6.53;4.63;;;;;;;18.04;61.66;102240.69;4818833;29;20129;-85
2022/01/01 10:52:20;;;;;;;6.20;4.20;;;;;;;18.07;61.24;102232.00;4849758;29;20378;-84
2022/01/01 10:54:54;;;;;;;9.10;4.30;;;;;;;18.06;61.29;102227.69;4865646;29;20400;-83
2022/01/01 10:57:33;;;;;;;7.32;4.53;;;;;;;18.06;61.44;102220.72;4864216;29;20041;-84
2022/01/01 11:00:20;;;;;;;7.00;4.97;;;;;;;18.08;61.22;102219.03;4849118;29;20033;-84
2022/01/01 11:02:53;;;;;;;8.52;5.00;;;;;;;18.08;61.22;102213.81;4849103;29;20042;-85
2022/01/01 11:05:29;;;;;;;7.30;5.10;;;;;;;18.09;61.52;102212.06;4864353;29;20053;-85
2022/01/01 11:07:55;;;;;;;6.53;4.80;;;;;;;18.11;61.56;102210.34;4864103;29;20037;-85
2022/01/01 11:10:22;;;;;;;8.73;5.20;;;;;;;18.14;60.73;102217.31;4848556;29;20038;-83
2022/01/01 11:12:48;;;;;;;6.20;4.55;;;;;;;18.15;60.89;102216.47;4848971;29;20136;-82
2022/01/01 11:15:14;;;;;;;7.75;4.97;;;;;;;18.17;60.83;102210.41;4833144;29;20575;-82
2022/01/01 11:17:40;;;;;;;7.03;5.35;;;;;;;18.17;60.50;102184.38;4832967;29;20136;-82
2022/01/01 11:20:07;;;;;;;6.05;4.82;;;;;;;18.20;60.95;102173.09;4817958;29;20117;-83
2022/01/01 11:22:33;;;;;;;5.50;4.85;;;;;;;18.22;60.82;102179.19;4832882;29;20072;-83
2022/01/01 11:24:59;;;;;;;8.30;5.60;;;;;;;18.20;60.78;102184.38;4864363;29;20072;-79
2022/01/01 11:27:26;;;;;;;7.80;5.55;;;;;;;18.21;60.82;102180.94;4847999;29;20449;-82